sensor_id;sensor_type;location;lat;lon;timestamp;temperature;humidity
37910;DHT22;23741;49.446;8.754;2022-08-01T00:00:39;25.50;46.20
37910;DHT22;23741;49.446;8.754;2022-08-01T00:02:41;25.50;46.20
37910;DHT22;23741;49.446;8.754;2022-08-01T00:04:43;25.50;46.20
37910;DHT22;23741;49.446;8.754;2022-08-01T00:06:44;25.50;46.90
37910;DHT22;23741;49.446;8.754;2022-08-01T00:08:46;25.50;46.40
37910;DHT22;23741;49.446;8.754;2022-08-01T00:10:48;25.50;46.50
37910;DHT22;23741;49.446;8.754;2022-08-01T00:12:50;25.50;46.70
37910;DHT22;23741;49.446;8.754;2022-08-01T00:14:51;25.50;46.30
37910;DHT22;23741;49.446;8.754;2022-08-01T00:16:53;25.40;46.40
37910;DHT22;23741;49.446;8.754;2022-08-01T00:18:55;25.40;46.40
37910;DHT22;23741;49.446;8.754;2022-08-01T00:20:56;25.40;46.50
37910;DHT22;23741;49.446;8.754;2022-08-01T00:22:58;25.40;46.60
37910;DHT22;23741;49.446;8.754;2022-08-01T00:25:00;25.40;46.60
37910;DHT22;23741;49.446;8.754;2022-08-01T00:27:02;25.40;46.80
37910;DHT22;23741;49.446;8.754;2022-08-01T00:29:04;25.30;46.70
37910;DHT22;23741;49.446;8.754;2022-08-01T00:31:12;25.30;46.80
37910;DHT22;23741;49.446;8.754;2022-08-01T00:33:13;25.30;47.00
37910;DHT22;23741;49.446;8.754;2022-08-01T00:35:15;25.20;47.00
37910;DHT22;23741;49.446;8.754;2022-08-01T00:37:17;25.20;47.00
37910;DHT22;23741;49.446;8.754;2022-08-01T00:39:19;25.20;47.10
37910;DHT22;23741;49.446;8.754;2022-08-01T00:41:21;25.20;47.90
37910;DHT22;23741;49.446;8.754;2022-08-01T00:43:22;25.20;47.40
37910;DHT22;23741;49.446;8.754;2022-08-01T00:45:24;25.20;48.10
37910;DHT22;23741;49.446;8.754;2022-08-01T00:47:28;25.10;47.50
37910;DHT22;23741;49.446;8.754;2022-08-01T00:49:29;25.10;47.50
37910;DHT22;23741;49.446;8.754;2022-08-01T00:51:31;25.10;47.40
37910;DHT22;23741;49.446;8.754;2022-08-01T00:53:39;25.10;47.50
37910;DHT22;23741;49.446;8.754;2022-08-01T00:55:52;25.00;48.20
37910;DHT22;23741;49.446;8.754;2022-08-01T00:57:54;25.00;47.70
37910;DHT22;23741;49.446;8.754;2022-08-01T01:00:06;25.00;48.00
37910;DHT22;23741;49.446;8.754;2022-08-01T01:02:09;25.00;48.00
37910;DHT22;23741;49.446;8.754;2022-08-01T01:04:16;25.00;47.80
37910;DHT22;23741;49.446;8.754;2022-08-01T01:08:22;24.90;48.10
37910;DHT22;23741;49.446;8.754;2022-08-01T01:10:30;24.90;47.80
37910;DHT22;23741;49.446;8.754;2022-08-01T01:12:44;24.90;48.10
37910;DHT22;23741;49.446;8.754;2022-08-01T01:14:53;24.90;48.00
37910;DHT22;23741;49.446;8.754;2022-08-01T01:16:56;24.90;48.10
37910;DHT22;23741;49.446;8.754;2022-08-01T01:19:00;24.90;48.10
37910;DHT22;23741;49.446;8.754;2022-08-01T01:27:47;24.90;48.70
37910;DHT22;23741;49.446;8.754;2022-08-01T01:29:52;24.80;48.70
37910;DHT22;23741;49.446;8.754;2022-08-01T01:34:35;24.80;48.90
37910;DHT22;23741;49.446;8.754;2022-08-01T01:36:37;24.70;49.00
37910;DHT22;23741;49.446;8.754;2022-08-01T01:38:41;24.70;49.00
37910;DHT22;23741;49.446;8.754;2022-08-01T01:40:43;24.70;48.70
37910;DHT22;23741;49.446;8.754;2022-08-01T01:42:45;24.70;49.00
37910;DHT22;23741;49.446;8.754;2022-08-01T01:44:47;24.70;48.90
37910;DHT22;23741;49.446;8.754;2022-08-01T01:46:50;24.70;49.00
37910;DHT22;23741;49.446;8.754;2022-08-01T01:48:53;24.60;48.80
37910;DHT22;23741;49.446;8.754;2022-08-01T01:50:55;24.60;49.00
37910;DHT22;23741;49.446;8.754;2022-08-01T01:52:58;24.70;49.10
37910;DHT22;23741;49.446;8.754;2022-08-01T01:55:01;24.60;49.00
37910;DHT22;23741;49.446;8.754;2022-08-01T01:57:03;24.60;49.20
37910;DHT22;23741;49.446;8.754;2022-08-01T01:59:06;24.60;49.20
37910;DHT22;23741;49.446;8.754;2022-08-01T02:01:07;24.60;49.00
37910;DHT22;23741;49.446;8.754;2022-08-01T02:03:15;24.60;49.20
37910;DHT22;23741;49.446;8.754;2022-08-01T02:05:17;24.60;49.30
37910;DHT22;23741;49.446;8.754;2022-08-01T02:07:21;24.60;49.30
37910;DHT22;23741;49.446;8.754;2022-08-01T02:09:24;24.50;49.40
37910;DHT22;23741;49.446;8.754;2022-08-01T02:11:26;24.60;49.50
37910;DHT22;23741;49.446;8.754;2022-08-01T02:13:29;24.60;49.70
37910;DHT22;23741;49.446;8.754;2022-08-01T02:15:31;24.60;49.60
37910;DHT22;23741;49.446;8.754;2022-08-01T02:17:36;24.50;49.70
37910;DHT22;23741;49.446;8.754;2022-08-01T02:19:39;24.60;49.70
37910;DHT22;23741;49.446;8.754;2022-08-01T02:21:48;24.50;50.10
37910;DHT22;23741;49.446;8.754;2022-08-01T02:23:50;24.50;49.80
37910;DHT22;23741;49.446;8.754;2022-08-01T02:25:53;24.50;49.90
37910;DHT22;23741;49.446;8.754;2022-08-01T02:28:22;24.50;50.00
37910;DHT22;23741;49.446;8.754;2022-08-01T02:30:33;24.40;50.10
37910;DHT22;23741;49.446;8.754;2022-08-01T02:32:46;24.40;49.80
37910;DHT22;23741;49.446;8.754;2022-08-01T02:34:47;24.40;50.10
37910;DHT22;23741;49.446;8.754;2022-08-01T02:36:50;24.40;50.00
37910;DHT22;23741;49.446;8.754;2022-08-01T02:38:52;24.40;50.00
37910;DHT22;23741;49.446;8.754;2022-08-01T02:40:59;24.40;50.10
37910;DHT22;23741;49.446;8.754;2022-08-01T02:43:05;24.40;50.20
37910;DHT22;23741;49.446;8.754;2022-08-01T02:45:07;24.30;50.20
37910;DHT22;23741;49.446;8.754;2022-08-01T02:47:09;24.30;50.40
37910;DHT22;23741;49.446;8.754;2022-08-01T02:49:11;24.30;50.40
37910;DHT22;23741;49.446;8.754;2022-08-01T02:51:14;24.30;50.50
37910;DHT22;23741;49.446;8.754;2022-08-01T02:53:18;24.30;50.50
37910;DHT22;23741;49.446;8.754;2022-08-01T02:55:20;24.30;50.50
37910;DHT22;23741;49.446;8.754;2022-08-01T02:57:24;24.30;50.50
37910;DHT22;23741;49.446;8.754;2022-08-01T02:59:46;24.30;50.80
37910;DHT22;23741;49.446;8.754;2022-08-01T03:01:48;24.30;50.80
37910;DHT22;23741;49.446;8.754;2022-08-01T03:03:51;24.30;50.70
37910;DHT22;23741;49.446;8.754;2022-08-01T03:05:52;24.20;51.00
37910;DHT22;23741;49.446;8.754;2022-08-01T03:07:55;24.30;51.00
37910;DHT22;23741;49.446;8.754;2022-08-01T03:10:04;24.30;50.80
37910;DHT22;23741;49.446;8.754;2022-08-01T03:12:07;24.30;50.90
37910;DHT22;23741;49.446;8.754;2022-08-01T03:14:11;24.20;51.00
37910;DHT22;23741;49.446;8.754;2022-08-01T03:16:13;24.20;50.80
37910;DHT22;23741;49.446;8.754;2022-08-01T03:18:16;24.20;51.30
37910;DHT22;23741;49.446;8.754;2022-08-01T03:20:18;24.20;51.30
37910;DHT22;23741;49.446;8.754;2022-08-01T03:22:23;24.20;51.30
37910;DHT22;23741;49.446;8.754;2022-08-01T03:24:25;24.20;51.20
37910;DHT22;23741;49.446;8.754;2022-08-01T03:26:28;24.20;51.40
37910;DHT22;23741;49.446;8.754;2022-08-01T03:28:30;24.20;51.40
37910;DHT22;23741;49.446;8.754;2022-08-01T03:30:32;24.10;51.30
37910;DHT22;23741;49.446;8.754;2022-08-01T03:32:34;24.10;51.50
37910;DHT22;23741;49.446;8.754;2022-08-01T03:34:36;24.10;51.60
37910;DHT22;23741;49.446;8.754;2022-08-01T03:36:41;24.10;51.60
37910;DHT22;23741;49.446;8.754;2022-08-01T03:38:44;24.10;51.90
37910;DHT22;23741;49.446;8.754;2022-08-01T03:40:47;24.10;52.10
37910;DHT22;23741;49.446;8.754;2022-08-01T03:42:52;24.00;52.00
37910;DHT22;23741;49.446;8.754;2022-08-01T03:44:57;24.00;51.80
37910;DHT22;23741;49.446;8.754;2022-08-01T03:47:00;24.00;51.90
37910;DHT22;23741;49.446;8.754;2022-08-01T03:49:06;24.00;52.10
37910;DHT22;23741;49.446;8.754;2022-08-01T03:51:09;24.00;52.30
37910;DHT22;23741;49.446;8.754;2022-08-01T03:53:11;24.00;52.30
37910;DHT22;23741;49.446;8.754;2022-08-01T03:55:14;23.90;52.30
37910;DHT22;23741;49.446;8.754;2022-08-01T03:57:18;23.90;52.30
37910;DHT22;23741;49.446;8.754;2022-08-01T03:59:37;23.90;52.30
37910;DHT22;23741;49.446;8.754;2022-08-01T04:01:39;23.90;52.10
37910;DHT22;23741;49.446;8.754;2022-08-01T04:03:42;23.90;52.20
37910;DHT22;23741;49.446;8.754;2022-08-01T04:05:44;23.80;52.50
37910;DHT22;23741;49.446;8.754;2022-08-01T04:07:47;23.80;52.30
37910;DHT22;23741;49.446;8.754;2022-08-01T04:09:49;23.90;52.20
37910;DHT22;23741;49.446;8.754;2022-08-01T04:11:50;23.80;52.60
37910;DHT22;23741;49.446;8.754;2022-08-01T04:13:52;23.80;52.30
37910;DHT22;23741;49.446;8.754;2022-08-01T04:15:55;23.80;52.60
37910;DHT22;23741;49.446;8.754;2022-08-01T04:17:57;23.80;52.70
37910;DHT22;23741;49.446;8.754;2022-08-01T04:19:59;23.80;52.70
37910;DHT22;23741;49.446;8.754;2022-08-01T04:22:01;23.80;52.80
37910;DHT22;23741;49.446;8.754;2022-08-01T04:24:06;23.70;52.60
37910;DHT22;23741;49.446;8.754;2022-08-01T04:26:10;23.70;52.90
37910;DHT22;23741;49.446;8.754;2022-08-01T04:28:13;23.70;52.80
37910;DHT22;23741;49.446;8.754;2022-08-01T04:30:18;23.70;52.70
37910;DHT22;23741;49.446;8.754;2022-08-01T04:32:21;23.70;53.20
37910;DHT22;23741;49.446;8.754;2022-08-01T04:34:24;23.70;52.80
37910;DHT22;23741;49.446;8.754;2022-08-01T04:36:26;23.70;53.30
37910;DHT22;23741;49.446;8.754;2022-08-01T04:38:30;23.70;52.70
37910;DHT22;23741;49.446;8.754;2022-08-01T04:40:34;23.70;53.20
37910;DHT22;23741;49.446;8.754;2022-08-01T04:42:37;23.70;52.80
37910;DHT22;23741;49.446;8.754;2022-08-01T04:44:39;23.70;53.20
37910;DHT22;23741;49.446;8.754;2022-08-01T04:46:40;23.60;52.90
37910;DHT22;23741;49.446;8.754;2022-08-01T04:48:43;23.70;53.20
37910;DHT22;23741;49.446;8.754;2022-08-01T04:50:46;23.70;53.10
37910;DHT22;23741;49.446;8.754;2022-08-01T04:52:47;23.70;53.60
37910;DHT22;23741;49.446;8.754;2022-08-01T04:54:50;23.70;53.40
37910;DHT22;23741;49.446;8.754;2022-08-01T04:56:52;23.70;53.60
37910;DHT22;23741;49.446;8.754;2022-08-01T04:58:54;23.70;53.70
37910;DHT22;23741;49.446;8.754;2022-08-01T05:01:20;23.60;53.50
37910;DHT22;23741;49.446;8.754;2022-08-01T05:03:22;23.70;53.90
37910;DHT22;23741;49.446;8.754;2022-08-01T05:05:24;23.70;53.80
37910;DHT22;23741;49.446;8.754;2022-08-01T05:07:27;23.70;53.50
37910;DHT22;23741;49.446;8.754;2022-08-01T05:09:29;23.70;53.60
37910;DHT22;23741;49.446;8.754;2022-08-01T05:11:32;23.70;53.40
37910;DHT22;23741;49.446;8.754;2022-08-01T05:13:33;23.70;53.70
37910;DHT22;23741;49.446;8.754;2022-08-01T05:15:35;23.70;53.50
37910;DHT22;23741;49.446;8.754;2022-08-01T05:17:40;23.70;53.40
37910;DHT22;23741;49.446;8.754;2022-08-01T05:19:43;23.70;53.40
37910;DHT22;23741;49.446;8.754;2022-08-01T05:21:45;23.70;53.90
37910;DHT22;23741;49.446;8.754;2022-08-01T05:23:47;23.80;53.70
37910;DHT22;23741;49.446;8.754;2022-08-01T05:25:50;23.80;53.60
37910;DHT22;23741;49.446;8.754;2022-08-01T05:27:58;23.80;53.50
37910;DHT22;23741;49.446;8.754;2022-08-01T05:30:00;23.80;53.70
37910;DHT22;23741;49.446;8.754;2022-08-01T05:32:02;23.80;54.10
37910;DHT22;23741;49.446;8.754;2022-08-01T05:34:04;23.80;54.20
37910;DHT22;23741;49.446;8.754;2022-08-01T05:36:15;23.90;53.90
37910;DHT22;23741;49.446;8.754;2022-08-01T05:38:17;23.90;53.70
37910;DHT22;23741;49.446;8.754;2022-08-01T05:40:18;23.90;53.90
37910;DHT22;23741;49.446;8.754;2022-08-01T05:42:20;23.90;54.00
37910;DHT22;23741;49.446;8.754;2022-08-01T05:44:22;23.90;53.90
37910;DHT22;23741;49.446;8.754;2022-08-01T05:46:24;23.90;53.70
37910;DHT22;23741;49.446;8.754;2022-08-01T05:48:28;23.90;54.20
37910;DHT22;23741;49.446;8.754;2022-08-01T05:50:30;24.00;54.20
37910;DHT22;23741;49.446;8.754;2022-08-01T05:52:31;24.00;54.20
37910;DHT22;23741;49.446;8.754;2022-08-01T05:54:33;24.00;54.20
37910;DHT22;23741;49.446;8.754;2022-08-01T05:56:35;24.00;54.20
37910;DHT22;23741;49.446;8.754;2022-08-01T05:58:37;24.00;53.90
37910;DHT22;23741;49.446;8.754;2022-08-01T06:00:39;24.10;54.00
37910;DHT22;23741;49.446;8.754;2022-08-01T06:02:44;24.10;54.10
37910;DHT22;23741;49.446;8.754;2022-08-01T06:04:46;24.10;54.00
37910;DHT22;23741;49.446;8.754;2022-08-01T06:06:47;24.10;53.90
37910;DHT22;23741;49.446;8.754;2022-08-01T06:08:49;24.20;53.90
37910;DHT22;23741;49.446;8.754;2022-08-01T06:10:52;24.20;53.90
37910;DHT22;23741;49.446;8.754;2022-08-01T06:12:53;24.20;54.10
37910;DHT22;23741;49.446;8.754;2022-08-01T06:14:55;24.20;54.00
37910;DHT22;23741;49.446;8.754;2022-08-01T06:16:57;24.30;53.90
37910;DHT22;23741;49.446;8.754;2022-08-01T06:18:59;24.30;53.80
37910;DHT22;23741;49.446;8.754;2022-08-01T06:21:01;24.30;53.80
37910;DHT22;23741;49.446;8.754;2022-08-01T06:23:03;24.30;53.70
37910;DHT22;23741;49.446;8.754;2022-08-01T06:25:25;24.40;53.80
37910;DHT22;23741;49.446;8.754;2022-08-01T06:27:26;24.40;53.70
37910;DHT22;23741;49.446;8.754;2022-08-01T06:29:30;24.40;53.60
37910;DHT22;23741;49.446;8.754;2022-08-01T06:31:31;24.50;53.70
37910;DHT22;23741;49.446;8.754;2022-08-01T06:33:34;24.50;53.80
37910;DHT22;23741;49.446;8.754;2022-08-01T06:35:36;24.60;53.80
37910;DHT22;23741;49.446;8.754;2022-08-01T06:37:38;24.60;53.80
37910;DHT22;23741;49.446;8.754;2022-08-01T06:39:39;24.60;53.80
37910;DHT22;23741;49.446;8.754;2022-08-01T06:41:41;24.60;53.80
37910;DHT22;23741;49.446;8.754;2022-08-01T06:43:43;24.70;53.90
37910;DHT22;23741;49.446;8.754;2022-08-01T06:45:44;24.70;53.80
37910;DHT22;23741;49.446;8.754;2022-08-01T06:47:46;24.70;53.60
37910;DHT22;23741;49.446;8.754;2022-08-01T06:49:51;24.70;53.80
37910;DHT22;23741;49.446;8.754;2022-08-01T06:51:53;24.80;53.70
37910;DHT22;23741;49.446;8.754;2022-08-01T06:53:54;24.80;53.70
37910;DHT22;23741;49.446;8.754;2022-08-01T06:55:56;24.80;53.30
37910;DHT22;23741;49.446;8.754;2022-08-01T06:57:58;24.80;53.40
37910;DHT22;23741;49.446;8.754;2022-08-01T07:00:05;24.90;53.40
37910;DHT22;23741;49.446;8.754;2022-08-01T07:02:12;24.90;53.50
37910;DHT22;23741;49.446;8.754;2022-08-01T07:04:14;24.90;53.50
37910;DHT22;23741;49.446;8.754;2022-08-01T07:06:15;24.90;53.30
37910;DHT22;23741;49.446;8.754;2022-08-01T07:08:18;24.90;53.30
37910;DHT22;23741;49.446;8.754;2022-08-01T07:10:20;24.90;53.50
37910;DHT22;23741;49.446;8.754;2022-08-01T07:12:21;24.90;53.20
37910;DHT22;23741;49.446;8.754;2022-08-01T07:14:23;24.90;53.30
37910;DHT22;23741;49.446;8.754;2022-08-01T07:16:25;25.00;53.40
37910;DHT22;23741;49.446;8.754;2022-08-01T07:18:27;25.00;53.30
37910;DHT22;23741;49.446;8.754;2022-08-01T07:20:29;25.00;53.10
37910;DHT22;23741;49.446;8.754;2022-08-01T07:22:38;25.00;53.80
37910;DHT22;23741;49.446;8.754;2022-08-01T07:24:40;25.00;52.80
37910;DHT22;23741;49.446;8.754;2022-08-01T07:26:47;25.00;52.80
37910;DHT22;23741;49.446;8.754;2022-08-01T07:28:54;25.00;53.00
37910;DHT22;23741;49.446;8.754;2022-08-01T07:30:56;25.00;53.80
37910;DHT22;23741;49.446;8.754;2022-08-01T07:32:58;25.00;53.00
37910;DHT22;23741;49.446;8.754;2022-08-01T07:35:00;25.00;53.30
37910;DHT22;23741;49.446;8.754;2022-08-01T07:37:02;25.00;53.10
37910;DHT22;23741;49.446;8.754;2022-08-01T07:39:04;25.00;52.90
37910;DHT22;23741;49.446;8.754;2022-08-01T07:41:05;25.00;52.80
37910;DHT22;23741;49.446;8.754;2022-08-01T07:43:07;25.00;53.00
37910;DHT22;23741;49.446;8.754;2022-08-01T07:45:09;25.00;52.90
37910;DHT22;23741;49.446;8.754;2022-08-01T07:47:11;25.00;52.90
37910;DHT22;23741;49.446;8.754;2022-08-01T07:49:13;25.10;53.00
37910;DHT22;23741;49.446;8.754;2022-08-01T07:51:15;25.10;52.80
37910;DHT22;23741;49.446;8.754;2022-08-01T07:53:16;25.10;53.00
37910;DHT22;23741;49.446;8.754;2022-08-01T07:55:18;25.10;53.00
37910;DHT22;23741;49.446;8.754;2022-08-01T07:57:20;25.20;53.00
37910;DHT22;23741;49.446;8.754;2022-08-01T07:59:22;25.20;53.00
37910;DHT22;23741;49.446;8.754;2022-08-01T08:01:26;25.20;53.00
37910;DHT22;23741;49.446;8.754;2022-08-01T08:03:29;25.20;52.90
37910;DHT22;23741;49.446;8.754;2022-08-01T08:05:31;25.20;52.80
37910;DHT22;23741;49.446;8.754;2022-08-01T08:07:53;25.30;52.90
37910;DHT22;23741;49.446;8.754;2022-08-01T08:09:55;25.30;52.90
37910;DHT22;23741;49.446;8.754;2022-08-01T08:11:57;25.40;52.80
37910;DHT22;23741;49.446;8.754;2022-08-01T08:13:59;25.40;52.80
37910;DHT22;23741;49.446;8.754;2022-08-01T08:16:00;25.40;52.80
37910;DHT22;23741;49.446;8.754;2022-08-01T08:18:02;25.50;52.50
37910;DHT22;23741;49.446;8.754;2022-08-01T08:20:05;25.50;52.80
37910;DHT22;23741;49.446;8.754;2022-08-01T08:22:09;25.50;52.80
37910;DHT22;23741;49.446;8.754;2022-08-01T08:24:11;25.60;52.60
37910;DHT22;23741;49.446;8.754;2022-08-01T08:26:27;25.60;52.70
37910;DHT22;23741;49.446;8.754;2022-08-01T08:28:29;25.70;52.80
37910;DHT22;23741;49.446;8.754;2022-08-01T08:30:31;25.70;52.80
37910;DHT22;23741;49.446;8.754;2022-08-01T08:32:33;25.80;52.80
37910;DHT22;23741;49.446;8.754;2022-08-01T08:34:34;25.80;52.70
37910;DHT22;23741;49.446;8.754;2022-08-01T08:36:36;25.90;52.60
37910;DHT22;23741;49.446;8.754;2022-08-01T08:38:38;25.90;52.50
37910;DHT22;23741;49.446;8.754;2022-08-01T08:40:40;25.90;52.40
37910;DHT22;23741;49.446;8.754;2022-08-01T08:42:42;26.00;52.40
37910;DHT22;23741;49.446;8.754;2022-08-01T08:44:44;26.10;52.30
37910;DHT22;23741;49.446;8.754;2022-08-01T08:46:47;26.10;52.30
37910;DHT22;23741;49.446;8.754;2022-08-01T08:48:49;26.10;52.30
37910;DHT22;23741;49.446;8.754;2022-08-01T08:50:51;26.10;52.20
37910;DHT22;23741;49.446;8.754;2022-08-01T08:52:54;26.10;52.10
37910;DHT22;23741;49.446;8.754;2022-08-01T08:54:56;26.10;51.90
37910;DHT22;23741;49.446;8.754;2022-08-01T08:56:59;26.20;52.00
37910;DHT22;23741;49.446;8.754;2022-08-01T08:59:02;26.20;52.00
37910;DHT22;23741;49.446;8.754;2022-08-01T09:01:05;26.20;51.90
37910;DHT22;23741;49.446;8.754;2022-08-01T09:03:07;26.30;51.30
37910;DHT22;23741;49.446;8.754;2022-08-01T09:05:10;26.30;51.90
37910;DHT22;23741;49.446;8.754;2022-08-01T09:07:19;26.30;51.80
37910;DHT22;23741;49.446;8.754;2022-08-01T09:09:22;26.30;51.70
37910;DHT22;23741;49.446;8.754;2022-08-01T09:11:24;26.30;51.60
37910;DHT22;23741;49.446;8.754;2022-08-01T09:13:26;26.40;51.70
37910;DHT22;23741;49.446;8.754;2022-08-01T09:17:41;26.30;51.60
37910;DHT22;23741;49.446;8.754;2022-08-01T09:19:46;26.40;51.70
37910;DHT22;23741;49.446;8.754;2022-08-01T09:21:56;26.50;51.80
37910;DHT22;23741;49.446;8.754;2022-08-01T09:23:59;26.50;51.70
37910;DHT22;23741;49.446;8.754;2022-08-01T09:26:04;26.50;51.60
37910;DHT22;23741;49.446;8.754;2022-08-01T09:28:06;26.60;51.70
37910;DHT22;23741;49.446;8.754;2022-08-01T09:32:09;26.60;51.50
37910;DHT22;23741;49.446;8.754;2022-08-01T09:34:23;26.60;51.50
37910;DHT22;23741;49.446;8.754;2022-08-01T09:36:27;26.60;51.40
37910;DHT22;23741;49.446;8.754;2022-08-01T09:38:31;26.70;51.50
37910;DHT22;23741;49.446;8.754;2022-08-01T09:40:46;26.70;51.50
37910;DHT22;23741;49.446;8.754;2022-08-01T09:42:49;26.80;51.60
37910;DHT22;23741;49.446;8.754;2022-08-01T09:44:53;26.80;51.50
37910;DHT22;23741;49.446;8.754;2022-08-01T09:46:56;26.80;51.40
37910;DHT22;23741;49.446;8.754;2022-08-01T09:49:02;26.80;51.40
37910;DHT22;23741;49.446;8.754;2022-08-01T09:51:08;26.80;51.40
37910;DHT22;23741;49.446;8.754;2022-08-01T09:53:10;26.80;51.50
37910;DHT22;23741;49.446;8.754;2022-08-01T09:55:30;26.80;51.40
37910;DHT22;23741;49.446;8.754;2022-08-01T09:57:32;26.90;51.40
37910;DHT22;23741;49.446;8.754;2022-08-01T09:59:35;26.90;51.40
37910;DHT22;23741;49.446;8.754;2022-08-01T10:01:58;27.00;51.50
37910;DHT22;23741;49.446;8.754;2022-08-01T10:04:04;27.00;51.40
37910;DHT22;23741;49.446;8.754;2022-08-01T10:06:21;27.10;51.40
37910;DHT22;23741;49.446;8.754;2022-08-01T10:08:25;27.10;51.40
37910;DHT22;23741;49.446;8.754;2022-08-01T10:10:29;27.20;51.40
37910;DHT22;23741;49.446;8.754;2022-08-01T10:12:33;27.30;51.40
37910;DHT22;23741;49.446;8.754;2022-08-01T10:14:38;27.30;51.30
37910;DHT22;23741;49.446;8.754;2022-08-01T10:16:41;27.40;51.10
37910;DHT22;23741;49.446;8.754;2022-08-01T10:18:44;27.40;51.10
37910;DHT22;23741;49.446;8.754;2022-08-01T10:20:47;27.50;51.10
37910;DHT22;23741;49.446;8.754;2022-08-01T10:22:49;27.50;50.90
37910;DHT22;23741;49.446;8.754;2022-08-01T10:24:53;27.60;51.00
37910;DHT22;23741;49.446;8.754;2022-08-01T10:26:57;27.60;50.90
37910;DHT22;23741;49.446;8.754;2022-08-01T10:29:08;27.60;50.90
37910;DHT22;23741;49.446;8.754;2022-08-01T10:31:30;27.70;50.90
37910;DHT22;23741;49.446;8.754;2022-08-01T10:33:34;27.70;50.90
37910;DHT22;23741;49.446;8.754;2022-08-01T10:35:53;27.80;51.00
37910;DHT22;23741;49.446;8.754;2022-08-01T10:37:56;27.80;50.90
37910;DHT22;23741;49.446;8.754;2022-08-01T10:39:59;27.90;50.80
37910;DHT22;23741;49.446;8.754;2022-08-01T10:42:21;27.90;50.50
37910;DHT22;23741;49.446;8.754;2022-08-01T10:44:24;27.90;50.40
37910;DHT22;23741;49.446;8.754;2022-08-01T10:46:27;28.00;50.50
37910;DHT22;23741;49.446;8.754;2022-08-01T10:50:39;28.00;50.10
37910;DHT22;23741;49.446;8.754;2022-08-01T10:53:03;28.10;50.20
37910;DHT22;23741;49.446;8.754;2022-08-01T10:55:17;28.10;50.30
37910;DHT22;23741;49.446;8.754;2022-08-01T10:57:19;28.10;50.20
37910;DHT22;23741;49.446;8.754;2022-08-01T10:59:28;28.20;50.20
37910;DHT22;23741;49.446;8.754;2022-08-01T11:01:57;28.10;50.00
37910;DHT22;23741;49.446;8.754;2022-08-01T11:06:03;28.20;49.90
37910;DHT22;23741;49.446;8.754;2022-08-01T11:08:27;28.20;49.90
37910;DHT22;23741;49.446;8.754;2022-08-01T11:10:36;28.20;49.90
37910;DHT22;23741;49.446;8.754;2022-08-01T11:12:41;28.20;50.00
37910;DHT22;23741;49.446;8.754;2022-08-01T11:22:03;28.30;50.20
37910;DHT22;23741;49.446;8.754;2022-08-01T11:24:05;28.30;50.20
37910;DHT22;23741;49.446;8.754;2022-08-01T11:26:08;28.40;50.30
37910;DHT22;23741;49.446;8.754;2022-08-01T11:30:30;28.40;50.10
37910;DHT22;23741;49.446;8.754;2022-08-01T11:32:32;28.50;50.00
37910;DHT22;23741;49.446;8.754;2022-08-01T11:34:57;28.50;50.10
37910;DHT22;23741;49.446;8.754;2022-08-01T11:39:19;28.60;50.00
37910;DHT22;23741;49.446;8.754;2022-08-01T11:41:22;28.60;49.90
37910;DHT22;23741;49.446;8.754;2022-08-01T11:46:00;28.60;50.00
37910;DHT22;23741;49.446;8.754;2022-08-01T11:48:03;28.70;50.00
37910;DHT22;23741;49.446;8.754;2022-08-01T11:50:53;28.70;49.90
37910;DHT22;23741;49.446;8.754;2022-08-01T11:52:47;28.80;49.80
37910;DHT22;23741;49.446;8.754;2022-08-01T11:54:51;28.80;49.80
37910;DHT22;23741;49.446;8.754;2022-08-01T11:56:54;28.90;50.00
37910;DHT22;23741;49.446;8.754;2022-08-01T11:58:59;28.90;50.00
37910;DHT22;23741;49.446;8.754;2022-08-01T12:01:01;29.00;49.90
37910;DHT22;23741;49.446;8.754;2022-08-01T12:03:04;29.10;50.00
37910;DHT22;23741;49.446;8.754;2022-08-01T12:05:12;29.20;50.00
37910;DHT22;23741;49.446;8.754;2022-08-01T12:07:15;29.20;49.70
37910;DHT22;23741;49.446;8.754;2022-08-01T12:09:17;29.30;49.60
37910;DHT22;23741;49.446;8.754;2022-08-01T12:11:20;29.40;49.60
37910;DHT22;23741;49.446;8.754;2022-08-01T12:13:22;29.40;48.70
37910;DHT22;23741;49.446;8.754;2022-08-01T12:15:24;29.50;49.30
37910;DHT22;23741;49.446;8.754;2022-08-01T12:17:29;29.50;49.30
37910;DHT22;23741;49.446;8.754;2022-08-01T12:19:31;29.60;49.40
37910;DHT22;23741;49.446;8.754;2022-08-01T12:21:33;29.70;49.50
37910;DHT22;23741;49.446;8.754;2022-08-01T12:23:34;29.70;49.50
37910;DHT22;23741;49.446;8.754;2022-08-01T12:25:36;29.80;49.50
37910;DHT22;23741;49.446;8.754;2022-08-01T12:27:41;29.90;49.40
37910;DHT22;23741;49.446;8.754;2022-08-01T12:29:43;30.00;49.20
37910;DHT22;23741;49.446;8.754;2022-08-01T12:31:45;30.00;49.20
37910;DHT22;23741;49.446;8.754;2022-08-01T12:33:47;30.10;49.70
37910;DHT22;23741;49.446;8.754;2022-08-01T12:35:49;30.10;49.00
37910;DHT22;23741;49.446;8.754;2022-08-01T12:37:52;30.20;49.00
37910;DHT22;23741;49.446;8.754;2022-08-01T12:39:55;30.20;48.90
37910;DHT22;23741;49.446;8.754;2022-08-01T12:41:58;30.30;48.80
37910;DHT22;23741;49.446;8.754;2022-08-01T12:44:00;30.40;48.60
37910;DHT22;23741;49.446;8.754;2022-08-01T12:46:01;30.50;48.70
37910;DHT22;23741;49.446;8.754;2022-08-01T12:48:07;30.50;48.70
37910;DHT22;23741;49.446;8.754;2022-08-01T12:50:13;30.60;48.70
37910;DHT22;23741;49.446;8.754;2022-08-01T12:52:15;30.70;48.70
37910;DHT22;23741;49.446;8.754;2022-08-01T12:54:18;30.80;48.90
37910;DHT22;23741;49.446;8.754;2022-08-01T12:56:22;30.90;48.80
37910;DHT22;23741;49.446;8.754;2022-08-01T12:58:32;31.00;48.90
37910;DHT22;23741;49.446;8.754;2022-08-01T13:00:35;31.10;48.90
37910;DHT22;23741;49.446;8.754;2022-08-01T13:02:37;31.20;48.80
37910;DHT22;23741;49.446;8.754;2022-08-01T13:04:48;31.30;48.70
37910;DHT22;23741;49.446;8.754;2022-08-01T13:06:53;31.40;48.90
37910;DHT22;23741;49.446;8.754;2022-08-01T13:09:04;31.50;48.40
37910;DHT22;23741;49.446;8.754;2022-08-01T13:11:09;31.60;48.20
37910;DHT22;23741;49.446;8.754;2022-08-01T13:13:16;31.70;47.90
37910;DHT22;23741;49.446;8.754;2022-08-01T13:15:30;31.80;47.90
37910;DHT22;23741;49.446;8.754;2022-08-01T13:17:33;31.90;47.80
37910;DHT22;23741;49.446;8.754;2022-08-01T13:19:43;32.00;47.70
37910;DHT22;23741;49.446;8.754;2022-08-01T13:21:55;32.00;47.50
37910;DHT22;23741;49.446;8.754;2022-08-01T13:24:10;32.10;47.70
37910;DHT22;23741;49.446;8.754;2022-08-01T13:26:12;32.20;47.50
37910;DHT22;23741;49.446;8.754;2022-08-01T13:28:14;32.20;47.30
37910;DHT22;23741;49.446;8.754;2022-08-01T13:30:17;32.30;47.80
37910;DHT22;23741;49.446;8.754;2022-08-01T13:32:20;32.40;46.50
37910;DHT22;23741;49.446;8.754;2022-08-01T13:34:31;32.40;47.10
37910;DHT22;23741;49.446;8.754;2022-08-01T13:36:33;32.40;47.20
37910;DHT22;23741;49.446;8.754;2022-08-01T13:38:36;32.50;47.10